Time;durP1;ratioP1;P1;durP2;ratioP2;P2;SDS_P1;SDS_P2;PMS_P1;PMS_P2;Temp;Humidity;BMP_temperature;BMP_pressure;BME280_temperature;BME280_humidity;BME280_pressure;Samples;Min_cycle;Max_cycle;Signal;HPM_P1;HPM_P2
2021/08/13 00:00:12;;;;;;;9.75;5.22;;;19.90;99.90;;;;;;1866715;77;21564;-72
2021/08/13 00:02:39;;;;;;;7.40;5.80;;;19.90;99.90;;;;;;1866605;77;21451;-73
2021/08/13 00:05:05;;;;;;;7.75;5.65;;;19.80;99.90;;;;;;1866645;76;21133;-73
2021/08/13 00:07:31;;;;;;;8.18;6.37;;;19.80;99.90;;;;;;1866674;76;21141;-73
2021/08/13 00:09:57;;;;;;;9.75;6.12;;;19.70;99.90;;;;;;1866758;76;21136;-73
2021/08/13 00:12:23;;;;;;;8.18;6.20;;;19.80;99.90;;;;;;1866713;76;21137;-73
2021/08/13 00:14:49;;;;;;;9.40;6.30;;;19.80;99.90;;;;;;1866751;76;21091;-73
2021/08/13 00:17:16;;;;;;;9.18;6.37;;;19.80;99.90;;;;;;1866723;76;21150;-72
2021/08/13 00:19:42;;;;;;;6.62;5.90;;;19.70;99.90;;;;;;1866638;77;21484;-72
2021/08/13 00:22:08;;;;;;;7.22;6.03;;;19.70;99.90;;;;;;1866463;77;21470;-72
2021/08/13 00:24:34;;;;;;;9.10;6.60;;;19.60;99.90;;;;;;1866680;76;21070;-72
2021/08/13 00:27:00;;;;;;;7.87;6.45;;;19.60;99.90;;;;;;1866507;77;21141;-72
2021/08/13 00:29:26;;;;;;;10.15;6.25;;;19.60;99.90;;;;;;1866680;77;21149;-72
2021/08/13 00:31:52;;;;;;;8.98;5.60;;;19.50;99.90;;;;;;1866890;76;21067;-72
2021/08/13 00:34:19;;;;;;;7.62;5.83;;;19.50;99.90;;;;;;1866878;76;21094;-73
2021/08/13 00:36:45;;;;;;;8.75;6.67;;;19.50;99.90;;;;;;1866795;77;21153;-73
2021/08/13 00:39:11;;;;;;;9.75;6.30;;;19.40;99.90;;;;;;1866817;77;21066;-73
2021/08/13 00:41:37;;;;;;;9.45;6.53;;;19.50;99.90;;;;;;1866745;77;21538;-73
2021/08/13 00:44:03;;;;;;;18.55;6.90;;;19.40;99.90;;;;;;1866531;77;21506;-73
2021/08/13 00:46:29;;;;;;;8.10;6.05;;;19.40;99.90;;;;;;1866744;77;21490;-73
2021/08/13 00:48:55;;;;;;;9.78;6.30;;;19.30;99.90;;;;;;1866456;77;21487;-73
2021/08/13 00:51:22;;;;;;;10.23;6.72;;;19.30;99.90;;;;;;1866727;77;21504;-73
2021/08/13 00:53:48;;;;;;;10.60;6.30;;;19.30;99.90;;;;;;1866428;77;21529;-73
2021/08/13 00:56:16;;;;;;;7.85;6.78;;;19.30;99.90;;;;;;1866908;76;21490;-73
2021/08/13 00:58:42;;;;;;;14.33;7.00;;;19.30;99.90;;;;;;1865528;77;21092;-73
2021/08/13 01:01:10;;;;;;;10.65;6.55;;;19.30;99.90;;;;;;1866883;77;21460;-73
2021/08/13 01:03:36;;;;;;;9.50;6.60;;;19.20;99.90;;;;;;1866471;76;21107;-73
2021/08/13 01:06:02;;;;;;;13.30;6.97;;;19.20;99.90;;;;;;1866724;77;21170;-73
2021/08/13 01:08:28;;;;;;;12.35;6.70;;;19.30;99.90;;;;;;1866660;77;21040;-73
2021/08/13 01:10:54;;;;;;;10.80;7.40;;;19.20;99.90;;;;;;1866600;77;21152;-73
2021/08/13 01:13:20;;;;;;;8.63;7.20;;;19.20;99.90;;;;;;1866750;77;21063;-72
2021/08/13 01:15:46;;;;;;;10.78;8.25;;;19.20;99.90;;;;;;1866763;77;21020;-72
2021/08/13 01:18:12;;;;;;;12.05;8.20;;;19.20;99.90;;;;;;1866529;76;21079;-72
2021/08/13 01:20:39;;;;;;;11.25;7.75;;;19.10;99.90;;;;;;1866635;77;21542;-72
2021/08/13 01:23:05;;;;;;;10.82;8.10;;;19.00;99.90;;;;;;1866502;77;21597;-71
2021/08/13 01:25:31;;;;;;;10.40;7.87;;;19.00;99.90;;;;;;1866480;77;21059;-72
2021/08/13 01:27:57;;;;;;;11.35;7.75;;;19.00;99.90;;;;;;1866680;76;21075;-71
2021/08/13 01:30:25;;;;;;;11.93;8.28;;;19.00;99.90;;;;;;1866458;77;21074;-72
2021/08/13 01:32:51;;;;;;;9.15;7.65;;;19.00;99.90;;;;;;1866684;77;21576;-72
2021/08/13 01:35:17;;;;;;;10.15;8.43;;;19.00;99.90;;;;;;1866411;76;21484;-72
2021/08/13 01:37:44;;;;;;;10.75;7.60;;;19.00;99.90;;;;;;1866583;77;21496;-72
2021/08/13 01:40:10;;;;;;;14.33;8.38;;;19.00;99.90;;;;;;1866583;77;21075;-72
2021/08/13 01:42:37;;;;;;;9.30;7.10;;;18.90;99.90;;;;;;1866595;77;21071;-72
2021/08/13 01:45:03;;;;;;;10.58;6.87;;;18.90;99.90;;;;;;1866554;77;21067;-72
2021/08/13 01:47:29;;;;;;;9.58;7.15;;;18.90;99.90;;;;;;1866551;77;21115;-72
2021/08/13 01:49:55;;;;;;;8.63;7.22;;;18.90;99.90;;;;;;1866540;77;21149;-72
2021/08/13 01:52:21;;;;;;;10.75;7.45;;;18.90;99.90;;;;;;1866637;77;21495;-72
2021/08/13 01:54:48;;;;;;;8.98;7.25;;;18.80;99.90;;;;;;1866460;76;21528;-74
2021/08/13 01:57:14;;;;;;;11.65;7.80;;;18.80;99.90;;;;;;1866652;77;21078;-74
2021/08/13 01:59:40;;;;;;;7.05;6.37;;;18.80;99.90;;;;;;1866753;77;21067;-74
2021/08/13 02:02:06;;;;;;;10.82;6.33;;;18.80;99.90;;;;;;1866621;77;21087;-71
2021/08/13 02:04:32;;;;;;;8.70;7.22;;;18.80;99.90;;;;;;1866773;77;21052;-71
2021/08/13 02:06:59;;;;;;;8.35;7.08;;;18.70;99.90;;;;;;1866527;77;21065;-71
2021/08/13 02:09:25;;;;;;;7.65;6.83;;;18.70;99.90;;;;;;1866684;77;21160;-72
2021/08/13 02:11:51;;;;;;;12.28;7.17;;;18.70;99.90;;;;;;1866418;77;21100;-73
2021/08/13 02:14:17;;;;;;;8.90;7.33;;;18.70;99.90;;;;;;1866805;77;21132;-72
2021/08/13 02:16:43;;;;;;;9.00;6.70;;;18.70;99.90;;;;;;1865523;77;21157;-72
2021/08/13 02:19:09;;;;;;;12.60;7.17;;;18.70;99.90;;;;;;1865884;77;21134;-72
2021/08/13 02:21:35;;;;;;;16.12;6.92;;;18.70;99.90;;;;;;1866559;76;21083;-72
2021/08/13 02:24:01;;;;;;;10.82;7.45;;;18.70;99.90;;;;;;1866703;77;21075;-72
2021/08/13 02:26:28;;;;;;;9.15;6.70;;;18.70;99.90;;;;;;1866834;77;21038;-71
2021/08/13 02:28:54;;;;;;;8.70;7.17;;;18.80;99.90;;;;;;1866353;76;21177;-72
2021/08/13 02:31:20;;;;;;;12.80;7.03;;;18.80;99.90;;;;;;1866622;77;21467;-72
2021/08/13 02:33:46;;;;;;;11.40;6.90;;;18.80;99.90;;;;;;1866754;77;21527;-72
2021/08/13 02:36:12;;;;;;;8.95;6.92;;;18.80;99.90;;;;;;1868187;77;21051;-71
2021/08/13 02:38:38;;;;;;;14.87;7.83;;;18.70;99.90;;;;;;1870606;76;21048;-71
2021/08/13 02:41:04;;;;;;;8.50;7.05;;;18.70;99.90;;;;;;1868431;77;21080;-72
2021/08/13 02:43:30;;;;;;;7.12;6.42;;;18.80;99.90;;;;;;1866732;77;21510;-72
2021/08/13 02:45:57;;;;;;;8.55;7.22;;;18.80;99.90;;;;;;1866582;77;21499;-72
2021/08/13 02:48:23;;;;;;;21.95;7.28;;;18.70;99.90;;;;;;1866760;77;21075;-72
2021/08/13 02:50:49;;;;;;;11.05;6.47;;;18.80;99.90;;;;;;1866779;77;21079;-72
2021/08/13 02:53:17;;;;;;;7.75;6.72;;;18.80;99.90;;;;;;1866775;77;21052;-72
2021/08/13 02:55:43;;;;;;;8.30;6.45;;;18.80;99.90;;;;;;1866554;77;21071;-72
2021/08/13 02:58:09;;;;;;;10.28;6.55;;;18.80;99.90;;;;;;1866636;77;21114;-72
2021/08/13 03:00:35;;;;;;;11.73;6.75;;;18.80;99.90;;;;;;1866622;77;21067;-72
2021/08/13 03:03:01;;;;;;;7.83;6.00;;;18.80;99.90;;;;;;1866679;77;21051;-72
2021/08/13 03:05:29;;;;;;;7.47;6.60;;;18.80;99.90;;;;;;1866653;77;21078;-72
2021/08/13 03:07:55;;;;;;;10.60;7.15;;;18.70;99.90;;;;;;1866447;76;21149;-72
2021/08/13 03:10:21;;;;;;;9.43;7.20;;;18.70;99.90;;;;;;1866615;77;21078;-72
2021/08/13 03:12:48;;;;;;;9.35;7.10;;;18.70;99.90;;;;;;1866766;77;21044;-72
2021/08/13 03:15:14;;;;;;;7.62;6.90;;;18.70;99.90;;;;;;1866559;76;21137;-72
2021/08/13 03:17:40;;;;;;;8.90;6.40;;;18.70;99.90;;;;;;1866760;76;21075;-72
2021/08/13 03:20:06;;;;;;;9.90;6.53;;;18.70;99.90;;;;;;1866563;77;21083;-72
2021/08/13 03:22:32;;;;;;;7.97;6.67;;;18.70;99.90;;;;;;1866731;77;21051;-72
2021/08/13 03:24:58;;;;;;;7.90;6.53;;;18.80;99.90;;;;;;1863945;77;21153;-72
2021/08/13 03:27:25;;;;;;;7.55;6.53;;;18.80;99.90;;;;;;1866801;77;21088;-72
2021/08/13 03:29:51;;;;;;;7.87;6.37;;;18.80;99.90;;;;;;1866611;77;21113;-72
2021/08/13 03:32:17;;;;;;;10.93;6.90;;;18.90;99.90;;;;;;1865684;77;21078;-72
2021/08/13 03:34:43;;;;;;;9.10;6.75;;;18.90;99.90;;;;;;1866799;76;21179;-72
2021/08/13 03:37:09;;;;;;;10.32;6.70;;;18.80;99.90;;;;;;1866813;77;21110;-72
2021/08/13 03:39:36;;;;;;;10.28;7.05;;;18.80;99.90;;;;;;1866776;77;21145;-72
2021/08/13 03:42:02;;;;;;;6.80;6.12;;;18.90;99.90;;;;;;1866516;77;21079;-73
2021/08/13 03:44:28;;;;;;;10.32;6.17;;;18.80;99.90;;;;;;1866736;76;21047;-74
2021/08/13 03:46:54;;;;;;;9.55;6.85;;;18.90;99.90;;;;;;1866539;77;21070;-72
2021/08/13 03:49:20;;;;;;;10.30;6.03;;;18.90;99.90;;;;;;1866767;76;21126;-72
2021/08/13 03:51:46;;;;;;;8.28;6.55;;;19.00;99.90;;;;;;1866585;77;21134;-72
2021/08/13 03:54:12;;;;;;;10.70;5.67;;;18.90;99.90;;;;;;1866776;77;21066;-72
2021/08/13 03:56:38;;;;;;;9.95;6.65;;;18.90;99.90;;;;;;1866638;76;21157;-72
2021/08/13 03:59:04;;;;;;;8.40;6.05;;;18.90;99.90;;;;;;1866579;77;21079;-72
2021/08/13 04:01:31;;;;;;;13.45;6.80;;;18.90;99.90;;;;;;1866708;77;21436;-72
2021/08/13 04:03:57;;;;;;;8.70;6.28;;;18.90;99.90;;;;;;1866518;76;21573;-72
2021/08/13 04:06:23;;;;;;;7.92;6.30;;;19.00;99.90;;;;;;1866686;77;21513;-73
2021/08/13 04:08:49;;;;;;;11.57;6.58;;;19.00;99.90;;;;;;1866519;77;21507;-73
2021/08/13 04:11:15;;;;;;;8.53;6.08;;;19.10;99.90;;;;;;1866486;77;21436;-72
2021/08/13 04:13:41;;;;;;;8.85;6.33;;;19.10;99.90;;;;;;1866687;76;21530;-72
2021/08/13 04:16:07;;;;;;;7.65;6.83;;;19.10;99.90;;;;;;1866485;77;21523;-73
2021/08/13 04:18:33;;;;;;;7.35;6.33;;;19.20;99.90;;;;;;1866730;76;21501;-72
2021/08/13 04:21:00;;;;;;;10.00;6.25;;;19.20;99.90;;;;;;1866476;77;21099;-71
2021/08/13 04:23:26;;;;;;;8.65;6.70;;;19.30;99.90;;;;;;1866709;77;21079;-71
2021/08/13 04:25:52;;;;;;;11.97;6.35;;;19.30;99.90;;;;;;1866515;77;21074;-72
2021/08/13 04:28:18;;;;;;;9.18;5.78;;;19.30;99.90;;;;;;1866704;76;21136;-72
2021/08/13 04:30:44;;;;;;;6.55;5.80;;;19.20;99.90;;;;;;1865743;76;21079;-72
2021/08/13 04:33:10;;;;;;;10.03;6.53;;;19.20;99.90;;;;;;1866700;77;21106;-72
2021/08/13 04:35:36;;;;;;;7.78;6.45;;;19.30;99.90;;;;;;1866604;77;21078;-72
2021/08/13 04:38:02;;;;;;;7.40;6.25;;;19.20;99.90;;;;;;1867030;76;21051;-73
2021/08/13 04:40:29;;;;;;;9.08;5.72;;;19.20;99.90;;;;;;1866594;77;21139;-73
2021/08/13 04:42:55;;;;;;;6.53;5.83;;;19.10;99.90;;;;;;1866816;76;21157;-75
2021/08/13 04:45:21;;;;;;;10.53;7.67;;;19.20;99.90;;;;;;1866606;77;21071;-73
2021/08/13 04:47:47;;;;;;;7.75;6.40;;;19.30;99.90;;;;;;1866638;77;21055;-74
2021/08/13 04:50:13;;;;;;;10.30;6.72;;;19.30;99.90;;;;;;1866644;76;21082;-73
2021/08/13 04:52:39;;;;;;;16.30;6.08;;;19.30;99.90;;;;;;1866702;77;21189;-74
2021/08/13 04:55:05;;;;;;;9.45;6.87;;;19.40;99.90;;;;;;1866510;77;21095;-73
2021/08/13 04:57:31;;;;;;;9.05;6.17;;;19.40;99.90;;;;;;1866596;76;21149;-72
2021/08/13 04:59:58;;;;;;;8.00;5.87;;;19.30;99.90;;;;;;1866624;76;21055;-73
2021/08/13 05:02:24;;;;;;;10.75;7.10;;;19.40;99.90;;;;;;1866466;77;21511;-72
2021/08/13 05:04:50;;;;;;;10.93;6.05;;;19.40;99.90;;;;;;1866583;77;21530;-73
2021/08/13 05:07:16;;;;;;;6.95;6.22;;;19.50;99.90;;;;;;1865621;77;21459;-73
2021/08/13 05:09:42;;;;;;;13.00;6.80;;;19.50;99.90;;;;;;1866527;77;21572;-73
2021/08/13 05:12:08;;;;;;;7.35;6.22;;;19.40;99.90;;;;;;1866570;77;21518;-73
2021/08/13 05:14:34;;;;;;;9.90;6.60;;;19.40;99.90;;;;;;1866557;77;21609;-73
2021/08/13 05:17:00;;;;;;;11.35;6.58;;;19.50;99.90;;;;;;1866661;77;21455;-73
2021/08/13 05:19:27;;;;;;;10.55;7.45;;;19.50;99.90;;;;;;1866518;76;21573;-71
2021/08/13 05:21:53;;;;;;;7.50;6.20;;;19.50;99.90;;;;;;1866582;77;21463;-71
2021/08/13 05:24:19;;;;;;;8.95;6.15;;;19.50;99.90;;;;;;1866541;77;21157;-72
2021/08/13 05:26:45;;;;;;;10.40;6.87;;;19.50;99.90;;;;;;1866528;77;21066;-72
2021/08/13 05:29:11;;;;;;;7.42;6.05;;;19.50;99.90;;;;;;1866561;77;21079;-71
2021/08/13 05:31:37;;;;;;;9.03;6.40;;;19.50;99.90;;;;;;1866541;77;21083;-72
2021/08/13 05:34:03;;;;;;;12.50;7.05;;;19.60;99.90;;;;;;1866580;77;21055;-71
2021/08/13 05:36:29;;;;;;;6.83;6.10;;;19.60;99.90;;;;;;1866589;77;21145;-72
2021/08/13 05:38:56;;;;;;;10.48;6.45;;;19.70;99.90;;;;;;1866461;77;21109;-72
2021/08/13 05:41:22;;;;;;;9.25;6.90;;;19.80;99.90;;;;;;1866629;77;21141;-72
2021/08/13 05:43:48;;;;;;;10.03;7.05;;;19.90;99.90;;;;;;1866567;77;21055;-71
2021/08/13 05:46:15;;;;;;;10.53;7.62;;;20.00;99.90;;;;;;1866537;77;21075;-72
2021/08/13 05:48:41;;;;;;;8.20;7.30;;;20.00;99.90;;;;;;1866454;77;21094;-72
2021/08/13 05:51:07;;;;;;;12.75;6.97;;;20.20;99.90;;;;;;1866566;77;21164;-72
2021/08/13 05:53:33;;;;;;;11.03;7.53;;;20.30;99.90;;;;;;1866643;76;21448;-72
2021/08/13 05:55:59;;;;;;;8.63;6.58;;;20.40;99.90;;;;;;1866535;76;21584;-72
2021/08/13 05:58:25;;;;;;;10.63;7.72;;;20.50;99.90;;;;;;1866506;77;21467;-72
2021/08/13 06:00:56;;;;;;;8.30;6.58;;;20.60;99.90;;;;;;1866465;77;21518;-73
2021/08/13 06:03:19;;;;;;;7.58;6.65;;;20.50;99.90;;;;;;1864873;77;21087;-73
2021/08/13 06:05:45;;;;;;;13.28;6.90;;;20.60;99.90;;;;;;1866511;77;21149;-73
2021/08/13 06:08:11;;;;;;;11.45;7.33;;;20.70;99.90;;;;;;1866531;76;21075;-72
2021/08/13 06:10:37;;;;;;;11.05;7.00;;;20.70;99.90;;;;;;1866507;77;21055;-72
2021/08/13 06:13:04;;;;;;;13.22;8.10;;;20.70;99.90;;;;;;1866659;76;21230;-73
2021/08/13 06:15:30;;;;;;;15.50;7.85;;;20.70;99.90;;;;;;1866496;77;21075;-72
2021/08/13 06:17:56;;;;;;;10.13;7.15;;;20.80;99.90;;;;;;1866515;77;21129;-72
2021/08/13 06:20:22;;;;;;;14.55;7.58;;;21.00;99.90;;;;;;1866614;77;21075;-72
2021/08/13 06:22:48;;;;;;;11.30;7.28;;;21.10;99.90;;;;;;1866424;77;21107;-73
2021/08/13 06:25:14;;;;;;;24.72;6.80;;;21.20;99.90;;;;;;1866687;77;21164;-73
2021/08/13 06:27:41;;;;;;;19.20;7.03;;;21.30;99.90;;;;;;1866727;77;21130;-73
2021/08/13 06:30:07;;;;;;;12.65;7.22;;;21.50;99.90;;;;;;1866532;77;21592;-73
2021/08/13 06:32:33;;;;;;;16.57;8.03;;;21.60;99.90;;;;;;1866364;77;21567;-73
2021/08/13 06:35:00;;;;;;;8.60;6.65;;;21.60;99.90;;;;;;1866586;77;21576;-72
2021/08/13 06:37:26;;;;;;;9.88;6.58;;;22.00;99.90;;;;;;1866574;77;21443;-72
2021/08/13 06:39:52;;;;;;;19.30;6.75;;;22.30;99.90;;;;;;1866317;77;21621;-73
2021/08/13 06:42:18;;;;;;;9.40;6.62;;;22.50;99.90;;;;;;1866485;77;21505;-72
2021/08/13 06:44:44;;;;;;;9.98;6.58;;;22.70;99.90;;;;;;1866394;76;21173;-73
2021/08/13 06:47:10;;;;;;;9.95;6.47;;;22.80;99.90;;;;;;1866530;77;21110;-72
2021/08/13 06:49:36;;;;;;;12.88;6.58;;;22.90;99.90;;;;;;1866322;77;21103;-73
2021/08/13 06:52:02;;;;;;;14.68;7.15;;;23.00;99.90;;;;;;1866530;76;21075;-73
2021/08/13 06:54:29;;;;;;;11.68;6.10;;;22.90;99.90;;;;;;1866404;76;21112;-72
2021/08/13 06:56:55;;;;;;;10.48;6.35;;;22.90;99.90;;;;;;1866509;77;21078;-72
2021/08/13 06:59:21;;;;;;;8.55;6.47;;;22.90;99.90;;;;;;1866361;77;21142;-72
2021/08/13 07:01:47;;;;;;;8.03;6.22;;;22.90;99.90;;;;;;1866803;77;21087;-72
2021/08/13 07:04:13;;;;;;;11.50;6.45;;;23.10;99.90;;;;;;1866626;77;21079;-76
2021/08/13 07:06:39;;;;;;;9.35;6.25;;;23.30;99.90;;;;;;1867644;77;21071;-75
2021/08/13 07:09:05;;;;;;;6.55;5.85;;;23.40;99.90;;;;;;1868401;77;21075;-76
2021/08/13 07:11:31;;;;;;;9.85;6.17;;;23.70;99.90;;;;;;1866581;77;21152;-76
2021/08/13 07:13:58;;;;;;;9.03;6.40;;;24.10;99.90;;;;;;1866583;76;21144;-75
2021/08/13 07:16:24;;;;;;;13.78;6.10;;;24.20;99.90;;;;;;1865577;77;21087;-75
2021/08/13 07:18:50;;;;;;;10.70;6.37;;;24.40;99.90;;;;;;1866638;77;21160;-77
2021/08/13 07:21:16;;;;;;;9.80;5.80;;;24.60;99.90;;;;;;1866589;76;21109;-76
2021/08/13 07:23:42;;;;;;;8.48;5.78;;;24.50;99.90;;;;;;1866688;76;21082;-76
2021/08/13 07:26:08;;;;;;;12.35;6.90;;;24.30;99.90;;;;;;1866675;77;21056;-77
2021/08/13 07:28:34;;;;;;;12.55;6.87;;;24.40;99.90;;;;;;1866698;76;21087;-76
2021/08/13 07:31:00;;;;;;;9.48;5.85;;;24.50;99.90;;;;;;1866652;77;21141;-75
2021/08/13 07:33:27;;;;;;;13.90;6.45;;;24.40;99.90;;;;;;1866697;76;21075;-76
2021/08/13 07:35:53;;;;;;;13.28;6.00;;;24.70;99.90;;;;;;1866635;77;21090;-74
2021/08/13 07:38:19;;;;;;;10.35;6.60;;;25.00;99.90;;;;;;1866801;77;21148;-74
2021/08/13 07:40:45;;;;;;;8.45;6.12;;;25.30;99.90;;;;;;1866625;76;21140;-75
2021/08/13 07:43:11;;;;;;;9.40;5.33;;;25.40;99.90;;;;;;1866594;76;21051;-74
2021/08/13 07:45:37;;;;;;;8.33;5.25;;;25.30;99.90;;;;;;1866522;76;21499;-74
2021/08/13 07:48:04;;;;;;;9.88;5.65;;;25.60;99.90;;;;;;1866618;76;21112;-75
2021/08/13 07:50:30;;;;;;;9.03;5.47;;;26.10;99.90;;;;;;1866701;77;21145;-74
2021/08/13 07:52:56;;;;;;;15.20;5.60;;;26.50;99.90;;;;;;1866640;77;21043;-75
2021/08/13 07:55:22;;;;;;;8.18;5.58;;;27.20;99.90;;;;;;1866637;77;21071;-75
2021/08/13 07:57:49;;;;;;;10.95;5.22;;;27.70;99.90;;;;;;1866506;77;21047;-75
2021/08/13 08:00:15;;;;;;;9.05;5.58;;;27.90;99.90;;;;;;1866660;76;21090;-75
2021/08/13 08:02:42;;;;;;;10.82;4.83;;;27.90;99.90;;;;;;1866509;77;21087;-75
2021/08/13 08:05:08;;;;;;;6.62;4.90;;;28.40;99.90;;;;;;1866720;77;21075;-75
2021/08/13 08:07:34;;;;;;;13.43;4.72;;;28.90;99.90;;;;;;1866483;77;21047;-75
2021/08/13 08:10:00;;;;;;;8.08;4.90;;;29.70;99.90;;;;;;1866671;77;21122;-75
2021/08/13 08:12:26;;;;;;;8.85;5.15;;;30.10;99.90;;;;;;1866518;77;21071;-75
2021/08/13 08:14:52;;;;;;;19.20;4.72;;;29.10;99.90;;;;;;1866718;77;21189;-75
2021/08/13 08:17:19;;;;;;;9.90;5.03;;;29.20;99.90;;;;;;1866649;77;21051;-75
2021/08/13 08:19:45;;;;;;;9.23;4.87;;;29.30;99.90;;;;;;1866586;77;21467;-75
2021/08/13 08:22:11;;;;;;;7.58;4.55;;;29.00;99.90;;;;;;1866727;77;21095;-75
2021/08/13 08:24:37;;;;;;;9.18;5.15;;;29.20;99.90;;;;;;1866701;77;21043;-75
2021/08/13 08:27:03;;;;;;;9.58;5.10;;;29.70;99.90;;;;;;1866803;77;21075;-75
2021/08/13 08:29:29;;;;;;;9.23;4.60;;;29.40;99.90;;;;;;1866761;77;21086;-76
2021/08/13 08:31:56;;;;;;;10.20;4.42;;;29.50;99.90;;;;;;1866553;76;21086;-75
2021/08/13 08:34:22;;;;;;;5.50;4.20;;;30.10;99.90;;;;;;1866700;77;21075;-75
2021/08/13 08:36:50;;;;;;;8.03;4.22;;;30.20;99.90;;;;;;1866507;77;21157;-75
2021/08/13 08:39:16;;;;;;;23.20;4.60;;;29.90;99.90;;;;;;1866670;76;21123;-76
2021/08/13 08:41:42;;;;;;;11.97;4.30;;;28.90;99.90;;;;;;1866447;77;21087;-75
2021/08/13 08:44:08;;;;;;;9.45;5.00;;;29.20;99.90;;;;;;1866588;77;21428;-75
2021/08/13 08:46:34;;;;;;;10.23;4.45;;;29.80;99.90;;;;;;1866661;76;21588;-75
2021/08/13 08:49:00;;;;;;;10.70;4.47;;;30.20;99.90;;;;;;1866689;77;21506;-74
2021/08/13 08:51:26;;;;;;;8.23;4.40;;;30.20;99.90;;;;;;1866437;76;21503;-76
2021/08/13 08:53:52;;;;;;;9.80;4.70;;;29.60;99.90;;;;;;1866473;77;21444;-76
2021/08/13 08:56:18;;;;;;;6.47;4.25;;;28.90;99.90;;;;;;1866683;77;21503;-74
2021/08/13 08:58:45;;;;;;;7.67;4.25;;;29.30;99.90;;;;;;1866374;77;21495;-72
2021/08/13 09:01:11;;;;;;;7.30;4.58;;;29.60;99.90;;;;;;1866662;77;21608;-74
2021/08/13 09:03:37;;;;;;;10.28;4.22;;;29.50;99.90;;;;;;1866445;77;21048;-75
2021/08/13 09:06:03;;;;;;;16.90;5.12;;;29.70;99.90;;;;;;1866664;77;21071;-74
2021/08/13 09:08:29;;;;;;;10.85;4.55;;;30.10;99.90;;;;;;1866475;77;21071;-75
2021/08/13 09:10:55;;;;;;;10.70;4.30;;;29.90;99.90;;;;;;1866721;76;21055;-74
2021/08/13 09:13:22;;;;;;;12.23;4.10;;;29.60;99.90;;;;;;1866432;77;21082;-76
2021/08/13 09:15:48;;;;;;;15.43;4.42;;;30.30;99.90;;;;;;1866640;77;21079;-77
2021/08/13 09:18:15;;;;;;;7.05;3.67;;;29.70;99.90;;;;;;1866476;77;21088;-73
2021/08/13 09:20:41;;;;;;;4.67;3.58;;;30.20;99.90;;;;;;1866773;77;21142;-78
2021/08/13 09:23:07;;;;;;;11.25;3.87;;;30.70;99.90;;;;;;1866398;77;21074;-75
2021/08/13 09:25:33;;;;;;;5.85;3.27;;;30.70;99.90;;;;;;1866680;76;21168;-73
2021/08/13 09:27:59;;;;;;;5.75;3.98;;;31.30;99.90;;;;;;1866608;77;21086;-79
2021/08/13 09:30:25;;;;;;;9.98;4.20;;;30.80;99.90;;;;;;1866740;76;21027;-76
2021/08/13 09:32:51;;;;;;;16.02;6.50;;;31.50;99.90;;;;;;1866500;77;21589;-74
2021/08/13 09:35:17;;;;;;;11.08;6.33;;;31.30;99.90;;;;;;1866504;77;21526;-73
2021/08/13 09:37:43;;;;;;;14.40;6.78;;;31.30;99.90;;;;;;1866611;77;21557;-76
2021/08/13 09:40:10;;;;;;;9.38;5.17;;;32.20;99.90;;;;;;1866615;77;21485;-76
2021/08/13 09:42:36;;;;;;;12.65;5.95;;;32.40;99.90;;;;;;1866589;77;21635;-77
2021/08/13 09:45:02;;;;;;;7.37;4.65;;;31.90;99.90;;;;;;1866560;77;21596;-76
2021/08/13 09:47:28;;;;;;;14.83;5.22;;;32.00;99.90;;;;;;1863359;75;21460;-76
2021/08/13 09:49:59;;;;;;;8.80;4.90;;;31.40;99.90;;;;;;1848716;77;21498;-77
2021/08/13 09:52:22;;;;;;;13.75;4.80;;;30.90;99.90;;;;;;1847914;78;21082;-77
2021/08/13 09:54:48;;;;;;;11.48;4.72;;;30.60;99.90;;;;;;1848892;78;21074;-80
2021/08/13 09:57:14;;;;;;;7.85;4.75;;;30.70;99.90;;;;;;1848689;78;21119;-78
2021/08/13 09:59:40;;;;;;;8.58;4.15;;;31.10;99.90;;;;;;1848631;78;21351;-77
2021/08/13 10:02:06;;;;;;;11.48;4.47;;;31.80;99.90;;;;;;1848853;77;21124;-77
2021/08/13 10:04:33;;;;;;;10.53;4.17;;;32.00;99.90;;;;;;1848749;77;21080;-77
2021/08/13 10:06:59;;;;;;;10.45;4.40;;;32.10;99.90;;;;;;1848667;78;21082;-77
2021/08/13 10:09:25;;;;;;;14.00;3.80;;;32.00;99.90;;;;;;1848791;78;21046;-77
2021/08/13 10:11:51;;;;;;;13.50;3.83;;;32.30;99.90;;;;;;1849061;77;21117;-77
2021/08/13 10:14:18;;;;;;;7.25;3.52;;;32.10;99.90;;;;;;1849112;77;21140;-77
2021/08/13 10:16:44;;;;;;;6.67;3.52;;;32.60;99.90;;;;;;1848594;78;21022;-77
2021/08/13 10:19:10;;;;;;;8.00;4.12;;;32.60;99.90;;;;;;1848877;78;21095;-77
2021/08/13 10:21:36;;;;;;;6.33;3.47;;;31.60;99.90;;;;;;1848770;75;21234;-76
2021/08/13 10:24:02;;;;;;;8.03;4.10;;;32.30;99.90;;;;;;1848724;78;21079;-77
2021/08/13 10:26:28;;;;;;;7.92;3.95;;;32.50;99.90;;;;;;1848796;77;21156;-77
2021/08/13 10:28:54;;;;;;;7.67;4.17;;;32.80;99.90;;;;;;1848694;77;21078;-77
2021/08/13 10:31:20;;;;;;;9.43;3.90;;;31.70;99.90;;;;;;1848429;76;21121;-77
2021/08/13 10:33:48;;;;;;;6.90;4.28;;;31.80;99.90;;;;;;1848496;78;21446;-77
2021/08/13 10:36:17;;;;;;;7.87;3.35;;;32.30;99.90;;;;;;1849865;78;21152;-77
2021/08/13 10:38:43;;;;;;;7.77;3.33;;;32.60;99.90;;;;;;1849837;77;21051;-78
2021/08/13 10:41:09;;;;;;;11.35;4.15;;;32.90;99.90;;;;;;1849610;75;21129;-77
2021/08/13 10:43:36;;;;;;;8.15;3.52;;;32.60;99.90;;;;;;1848699;78;21062;-78
2021/08/13 10:46:02;;;;;;;8.05;3.52;;;32.90;99.90;;;;;;1848706;78;21184;-77
2021/08/13 10:48:28;;;;;;;5.17;3.40;;;32.70;99.90;;;;;;1848673;78;21047;-77
2021/08/13 10:50:54;;;;;;;6.95;3.75;;;32.80;99.90;;;;;;1848597;75;21164;-77
2021/08/13 10:53:20;;;;;;;5.97;3.37;;;32.60;99.90;;;;;;1848664;78;21071;-77
2021/08/13 10:55:53;;;;;;;5.87;3.40;;;32.70;99.90;;;;;;1848646;78;21082;-78
2021/08/13 10:58:14;;;;;;;5.05;3.70;;;33.50;99.90;;;;;;1847412;78;21087;-78
2021/08/13 11:00:40;;;;;;;13.48;3.52;;;33.50;99.90;;;;;;1848735;78;21043;-78
2021/08/13 11:03:06;;;;;;;4.72;3.27;;;33.50;99.90;;;;;;1848669;78;21082;-77
2021/08/13 11:05:32;;;;;;;7.33;4.03;;;32.30;99.90;;;;;;1849383;77;21082;-77
2021/08/13 11:07:59;;;;;;;12.47;3.92;;;31.70;99.90;;;;;;1848621;78;21068;-78
2021/08/13 11:10:25;;;;;;;6.75;4.08;;;31.90;99.90;;;;;;1848617;78;21047;-78
2021/08/13 11:12:51;;;;;;;7.40;3.95;;;31.90;99.90;;;;;;1848659;78;21105;-77
2021/08/13 11:15:17;;;;;;;7.58;4.12;;;31.80;99.90;;;;;;1848649;78;21030;-77
2021/08/13 11:17:43;;;;;;;9.45;4.12;;;31.90;99.90;;;;;;1848642;78;21070;-78
2021/08/13 11:20:09;;;;;;;17.37;4.30;;;31.80;99.90;;;;;;1848622;78;21043;-78
2021/08/13 11:22:36;;;;;;;7.47;4.12;;;32.50;99.90;;;;;;1848657;78;21070;-77
2021/08/13 11:25:03;;;;;;;8.25;4.70;;;32.60;99.90;;;;;;1848645;78;21545;-78
2021/08/13 11:27:29;;;;;;;10.95;4.15;;;32.40;99.90;;;;;;1848716;78;21553;-77
2021/08/13 11:29:55;;;;;;;9.88;4.60;;;32.50;99.90;;;;;;1848715;76;21447;-78
2021/08/13 11:32:21;;;;;;;6.75;4.20;;;31.60;99.90;;;;;;1848874;75;21565;-77
2021/08/13 11:34:47;;;;;;;8.60;4.00;;;31.70;99.90;;;;;;1848561;78;21459;-78
2021/08/13 11:37:13;;;;;;;5.37;4.08;;;32.00;99.90;;;;;;1848781;75;21482;-78
2021/08/13 11:39:40;;;;;;;13.38;4.72;;;31.80;99.90;;;;;;1848648;78;21395;-78
2021/08/13 11:42:06;;;;;;;7.97;4.20;;;32.10;99.90;;;;;;1848682;78;21070;-78
2021/08/13 11:44:32;;;;;;;10.32;3.83;;;32.30;99.90;;;;;;1854577;76;21196;-77
2021/08/13 11:46:58;;;;;;;10.48;4.08;;;32.70;99.90;;;;;;1851759;73;21121;-78
2021/08/13 11:49:24;;;;;;;4.80;3.67;;;32.70;99.90;;;;;;1852690;72;21004;-78
2021/08/13 11:51:50;;;;;;;12.73;5.12;;;33.10;99.90;;;;;;1849811;76;21046;-78
2021/08/13 11:54:16;;;;;;;15.80;4.67;;;33.60;99.90;;;;;;1848931;75;21152;-77
2021/08/13 11:56:42;;;;;;;7.33;3.50;;;33.20;99.90;;;;;;1848812;78;21148;-78
2021/08/13 11:59:08;;;;;;;8.15;4.10;;;32.70;99.90;;;;;;1848773;78;21137;-78
2021/08/13 12:01:35;;;;;;;7.90;3.85;;;33.30;99.90;;;;;;1848803;77;21078;-78
2021/08/13 12:04:01;;;;;;;5.67;4.15;;;32.50;99.90;;;;;;1848864;77;21070;-78
2021/08/13 12:06:27;;;;;;;8.05;4.28;;;32.90;99.90;;;;;;1848627;78;21119;-77
2021/08/13 12:08:53;;;;;;;12.98;4.55;;;33.80;99.90;;;;;;1848568;78;21070;-77
2021/08/13 12:11:21;;;;;;;8.75;4.20;;;34.40;99.90;;;;;;1848586;78;21082;-77
2021/08/13 12:13:48;;;;;;;6.95;5.17;;;35.00;99.90;;;;;;1848613;78;21094;-77
2021/08/13 12:16:14;;;;;;;7.45;4.00;;;34.70;99.90;;;;;;1849106;77;21078;-77
2021/08/13 12:18:40;;;;;;;6.53;3.95;;;33.80;99.90;;;;;;1849300;77;21411;-76
2021/08/13 12:21:06;;;;;;;8.50;4.10;;;33.70;99.90;;;;;;1848609;78;21576;-76
2021/08/13 12:23:32;;;;;;;7.78;3.90;;;34.30;99.90;;;;;;1848652;76;21509;-77
2021/08/13 12:25:58;;;;;;;7.87;4.20;;;34.40;99.90;;;;;;1848603;78;21512;-76
2021/08/13 12:28:24;;;;;;;7.55;3.67;;;34.70;99.90;;;;;;1848964;77;21420;-77
2021/08/13 12:30:51;;;;;;;7.28;4.00;;;35.00;99.90;;;;;;1848686;78;21572;-76
2021/08/13 12:33:17;;;;;;;10.08;4.10;;;34.80;99.90;;;;;;1848537;78;21490;-76
2021/08/13 12:35:43;;;;;;;5.08;3.60;;;34.80;99.90;;;;;;1848823;77;21066;-76